Aérodrome :
LOGIN :

S'inscrire | Disclaimer

   EN    FR    IT 

 










Légende :    VFR   VFR Marginal   IFR   IFR Intensif   IFR Très Intensif
Visi : 
Plafond : 
>= 8 km
>= 3000ft
5 à 8 km
1000 à 3000 ft
1500m à 5 km
500 à 1000 ft
800 à 1500m
200 à 500 ft
< 800m
< 200 ft
Symboles :   Orages  Brouillard  Fortes neiges  Fortes précipitations  Vent > 20 kt
SIGMETs :   Divers  Orages  Givrage  Turbulence  Onde Orograph.  Cendres Volcan.






- Altitude de l'aérodrome : 870 ft
- Code IATA : ETZ


LFJL - Metz Nancy Lorraine

DERNIER METAR :
  • 090930Z AUTO 23012KT 9999 OVC007 02/01 Q1008 TEMPO 23015G25KT 2000 -SNRA BKN004

METARs EXPIRÉS :
  • 090900Z AUTO 21010KT 9999 OVC006 02/01 Q1007 BECMG BKN012
  • 090830Z AUTO 23011KT 9999 OVC005 02/01 Q1007 BECMG BKN012
  • 090800Z AUTO 21009KT 9999 OVC006 02/01 Q1007 BECMG BKN012
  • 090730Z AUTO 23009KT 9999 OVC005 02/01 Q1007 NOSIG
  • 090700Z AUTO 24008KT 9000 OVC006 02/01 Q1007 TEMPO OVC004

TAF AMD TAF LFJL
Valide du 09 à 07h jusqu'au 10 à 06h UTC


090743Z 0907/1006 23010KT 9999 OVC005
BECMG 0909/0911 BKN012
TEMPO 0911/0918 23015G25KT -RA
PROB40
TEMPO 0911/0914 2000 -SNRA BKN004
BECMG 0923/1002 17012KT



MET'MAP, la Météo Aéronautique d'un coup d'oeil ! - Copyright ORBIFLY Décembre 2007 - Disclaimer

ORBIFLY MET'MAP TEAM :

Programmation & Développement : Alexandra Zaïnal
Sur une idée originale de : Baudouin d'Aumeries
Assistance à la programmation : Marc-Olivier Méhu
Soutien technique & logistique : Manuel Goepfert

Contact : metmap@orbifly.com




SOURCES & CREDITS :

   NOAA